sensor_id;sensor_type;location;lat;lon;timestamp;temperature;humidity
66422;DHT22;53228;51.380;0.098;2023-07-20T08:30:05;15.10;99.90
66422;DHT22;53228;51.380;0.098;2023-07-20T08:32:34;16.50;99.90
66422;DHT22;53228;51.380;0.098;2023-07-20T08:35:01;16.40;99.90
66422;DHT22;53228;51.380;0.098;2023-07-20T08:37:29;16.40;99.90
66422;DHT22;53228;51.380;0.098;2023-07-20T08:39:57;16.40;99.90
66422;DHT22;53228;51.380;0.098;2023-07-20T08:42:24;16.50;99.90
66422;DHT22;53228;51.380;0.098;2023-07-20T08:44:53;16.70;99.90
66422;DHT22;53228;51.380;0.098;2023-07-20T08:47:22;17.00;99.90
66422;DHT22;53228;51.380;0.098;2023-07-20T08:49:52;17.40;99.90
66422;DHT22;53228;51.380;0.098;2023-07-20T08:52:21;17.70;99.90
66422;DHT22;53228;51.380;0.098;2023-07-20T08:54:49;18.00;99.90
66422;DHT22;53228;51.380;0.098;2023-07-20T10:48:19;19.30;99.90
66422;DHT22;53228;51.380;0.098;2023-07-20T10:51:13;19.50;99.90
66422;DHT22;53228;51.380;0.098;2023-07-20T10:53:43;19.90;99.90
66422;DHT22;53228;51.380;0.098;2023-07-20T10:56:13;20.10;99.90
66422;DHT22;53228;51.380;0.098;2023-07-20T10:58:42;20.30;99.90
66422;DHT22;53228;51.380;0.098;2023-07-20T11:01:14;20.30;99.90
66422;DHT22;53228;51.380;0.098;2023-07-20T11:03:48;20.40;99.90
66422;DHT22;53228;51.380;0.098;2023-07-20T11:11:39;20.90;99.90
66422;DHT22;53228;51.380;0.098;2023-07-20T11:14:09;21.30;99.90
66422;DHT22;53228;51.380;0.098;2023-07-20T11:19:06;22.10;99.90
66422;DHT22;53228;51.380;0.098;2023-07-20T11:21:37;22.30;99.90
66422;DHT22;53228;51.380;0.098;2023-07-20T11:24:18;22.50;99.90
66422;DHT22;53228;51.380;0.098;2023-07-20T11:26:51;22.70;99.90
66422;DHT22;53228;51.380;0.098;2023-07-20T11:29:20;22.60;99.90
66422;DHT22;53228;51.380;0.098;2023-07-20T11:31:59;22.60;99.90
66422;DHT22;53228;51.380;0.098;2023-07-20T11:34:26;22.90;99.90
66422;DHT22;53228;51.380;0.098;2023-07-20T11:36:55;23.00;99.90
66422;DHT22;53228;51.380;0.098;2023-07-20T11:39:26;23.10;99.90
66422;DHT22;53228;51.380;0.098;2023-07-20T11:41:56;23.10;99.90
66422;DHT22;53228;51.380;0.098;2023-07-20T11:44:26;23.50;99.90
66422;DHT22;53228;51.380;0.098;2023-07-20T11:47:07;23.90;99.90
66422;DHT22;53228;51.380;0.098;2023-07-20T11:49:36;24.40;99.90
66422;DHT22;53228;51.380;0.098;2023-07-20T11:52:08;24.80;99.90
66422;DHT22;53228;51.380;0.098;2023-07-20T11:54:38;25.10;99.90
66422;DHT22;53228;51.380;0.098;2023-07-20T11:57:07;25.30;99.90
66422;DHT22;53228;51.380;0.098;2023-07-20T11:59:34;25.20;99.90
66422;DHT22;53228;51.380;0.098;2023-07-20T12:02:03;24.80;99.90
66422;DHT22;53228;51.380;0.098;2023-07-20T12:04:31;24.30;99.80
66422;DHT22;53228;51.380;0.098;2023-07-20T12:07:00;23.80;99.90
66422;DHT22;53228;51.380;0.098;2023-07-20T12:09:28;23.50;99.90
66422;DHT22;53228;51.380;0.098;2023-07-20T12:12:15;23.20;99.90
66422;DHT22;53228;51.380;0.098;2023-07-20T12:14:43;22.80;99.90
66422;DHT22;53228;51.380;0.098;2023-07-20T12:17:11;22.60;99.90
66422;DHT22;53228;51.380;0.098;2023-07-20T12:19:38;22.40;99.90
66422;DHT22;53228;51.380;0.098;2023-07-20T12:22:08;22.20;99.40
66422;DHT22;53228;51.380;0.098;2023-07-20T12:24:35;22.00;99.80
66422;DHT22;53228;51.380;0.098;2023-07-20T12:27:03;21.80;99.90
66422;DHT22;53228;51.380;0.098;2023-07-20T12:29:31;21.70;99.90
66422;DHT22;53228;51.380;0.098;2023-07-20T12:32:04;21.80;99.90
66422;DHT22;53228;51.380;0.098;2023-07-20T12:34:32;21.90;99.90
66422;DHT22;53228;51.380;0.098;2023-07-20T12:37:03;21.90;99.60
66422;DHT22;53228;51.380;0.098;2023-07-20T12:39:31;21.70;97.70
66422;DHT22;53228;51.380;0.098;2023-07-20T12:41:58;21.70;98.30
66422;DHT22;53228;51.380;0.098;2023-07-20T12:44:26;21.50;98.60
66422;DHT22;53228;51.380;0.098;2023-07-20T12:46:54;21.40;98.70
66422;DHT22;53228;51.380;0.098;2023-07-20T12:49:21;21.40;99.00
66422;DHT22;53228;51.380;0.098;2023-07-20T12:51:49;21.40;98.30
66422;DHT22;53228;51.380;0.098;2023-07-20T12:54:17;21.30;98.00
66422;DHT22;53228;51.380;0.098;2023-07-20T12:56:44;21.20;97.60
66422;DHT22;53228;51.380;0.098;2023-07-20T12:59:15;21.20;98.00
66422;DHT22;53228;51.380;0.098;2023-07-20T13:01:42;21.20;97.70
66422;DHT22;53228;51.380;0.098;2023-07-20T13:04:11;21.20;97.80
66422;DHT22;53228;51.380;0.098;2023-07-20T13:06:40;21.20;97.90
66422;DHT22;53228;51.380;0.098;2023-07-20T13:09:08;21.10;97.10
66422;DHT22;53228;51.380;0.098;2023-07-20T13:11:37;21.20;97.50
66422;DHT22;53228;51.380;0.098;2023-07-20T13:14:04;21.20;97.30
66422;DHT22;53228;51.380;0.098;2023-07-20T13:16:32;21.30;97.30
66422;DHT22;53228;51.380;0.098;2023-07-20T13:19:01;21.30;97.00
66422;DHT22;53228;51.380;0.098;2023-07-20T13:21:29;21.30;96.80
66422;DHT22;53228;51.380;0.098;2023-07-20T13:23:57;21.30;96.40
66422;DHT22;53228;51.380;0.098;2023-07-20T13:26:24;21.30;97.10
66422;DHT22;53228;51.380;0.098;2023-07-20T13:28:52;21.30;96.70
66422;DHT22;53228;51.380;0.098;2023-07-20T13:31:22;21.30;97.60
66422;DHT22;53228;51.380;0.098;2023-07-20T13:33:51;21.40;98.10
66422;DHT22;53228;51.380;0.098;2023-07-20T13:36:26;21.40;97.20
66422;DHT22;53228;51.380;0.098;2023-07-20T13:38:55;21.20;97.30
66422;DHT22;53228;51.380;0.098;2023-07-20T13:41:23;21.00;98.20
66422;DHT22;53228;51.380;0.098;2023-07-20T13:43:51;20.90;98.80
66422;DHT22;53228;51.380;0.098;2023-07-20T13:46:19;20.90;98.40
66422;DHT22;53228;51.380;0.098;2023-07-20T13:49:07;20.80;97.50
66422;DHT22;53228;51.380;0.098;2023-07-20T13:51:37;20.70;97.50
66422;DHT22;53228;51.380;0.098;2023-07-20T13:54:05;20.60;96.70
66422;DHT22;53228;51.380;0.098;2023-07-20T13:56:36;20.60;97.30
66422;DHT22;53228;51.380;0.098;2023-07-20T13:59:04;20.50;97.20
66422;DHT22;53228;51.380;0.098;2023-07-20T14:01:33;20.50;97.80
66422;DHT22;53228;51.380;0.098;2023-07-20T14:04:05;20.50;98.10
66422;DHT22;53228;51.380;0.098;2023-07-20T14:06:33;20.50;98.40
66422;DHT22;53228;51.380;0.098;2023-07-20T14:09:01;20.50;98.70
66422;DHT22;53228;51.380;0.098;2023-07-20T14:11:30;20.50;98.70
66422;DHT22;53228;51.380;0.098;2023-07-20T14:14:01;20.50;98.90
66422;DHT22;53228;51.380;0.098;2023-07-20T14:16:29;20.50;98.70
66422;DHT22;53228;51.380;0.098;2023-07-20T14:18:59;20.50;98.50
66422;DHT22;53228;51.380;0.098;2023-07-20T14:21:27;20.40;98.00
66422;DHT22;53228;51.380;0.098;2023-07-20T14:23:56;20.40;98.20
66422;DHT22;53228;51.380;0.098;2023-07-20T14:26:28;20.40;98.80
66422;DHT22;53228;51.380;0.098;2023-07-20T14:29:00;20.40;99.30
66422;DHT22;53228;51.380;0.098;2023-07-20T14:31:29;20.40;99.20
66422;DHT22;53228;51.380;0.098;2023-07-20T14:33:59;20.30;99.00
66422;DHT22;53228;51.380;0.098;2023-07-20T14:36:27;20.30;99.00
66422;DHT22;53228;51.380;0.098;2023-07-20T14:38:55;20.30;98.80
66422;DHT22;53228;51.380;0.098;2023-07-20T14:41:22;20.30;99.10
66422;DHT22;53228;51.380;0.098;2023-07-20T14:43:50;20.30;97.90
66422;DHT22;53228;51.380;0.098;2023-07-20T14:46:18;20.40;98.70
66422;DHT22;53228;51.380;0.098;2023-07-20T14:48:48;20.30;98.30
66422;DHT22;53228;51.380;0.098;2023-07-20T14:51:16;20.30;97.70
66422;DHT22;53228;51.380;0.098;2023-07-20T14:53:43;20.20;98.00
66422;DHT22;53228;51.380;0.098;2023-07-20T14:56:11;20.20;98.60
66422;DHT22;53228;51.380;0.098;2023-07-20T14:58:39;20.20;98.50
66422;DHT22;53228;51.380;0.098;2023-07-20T15:01:06;20.30;98.00
66422;DHT22;53228;51.380;0.098;2023-07-20T15:03:34;20.40;97.10
66422;DHT22;53228;51.380;0.098;2023-07-20T15:06:02;20.50;97.10
66422;DHT22;53228;51.380;0.098;2023-07-20T15:08:30;20.50;96.50
66422;DHT22;53228;51.380;0.098;2023-07-20T15:10:58;20.60;96.00
66422;DHT22;53228;51.380;0.098;2023-07-20T15:13:26;20.60;96.40
66422;DHT22;53228;51.380;0.098;2023-07-20T15:15:54;20.60;95.90
66422;DHT22;53228;51.380;0.098;2023-07-20T15:18:21;20.50;95.80
66422;DHT22;53228;51.380;0.098;2023-07-20T15:21:08;20.50;95.80
66422;DHT22;53228;51.380;0.098;2023-07-20T15:23:35;20.50;95.80
66422;DHT22;53228;51.380;0.098;2023-07-20T15:26:03;20.50;96.10
66422;DHT22;53228;51.380;0.098;2023-07-20T15:28:31;20.50;95.60
66422;DHT22;53228;51.380;0.098;2023-07-20T15:31:05;20.40;95.40
66422;DHT22;53228;51.380;0.098;2023-07-20T15:33:33;20.40;95.70
66422;DHT22;53228;51.380;0.098;2023-07-20T15:36:00;20.20;95.30
66422;DHT22;53228;51.380;0.098;2023-07-20T15:38:28;20.10;95.60
66422;DHT22;53228;51.380;0.098;2023-07-20T15:40:56;19.90;96.20
66422;DHT22;53228;51.380;0.098;2023-07-20T15:43:26;19.90;96.40
66422;DHT22;53228;51.380;0.098;2023-07-20T15:46:02;19.80;96.30
66422;DHT22;53228;51.380;0.098;2023-07-20T15:48:33;19.80;96.30
66422;DHT22;53228;51.380;0.098;2023-07-20T15:51:00;19.70;96.20
66422;DHT22;53228;51.380;0.098;2023-07-20T15:53:29;19.80;96.00
66422;DHT22;53228;51.380;0.098;2023-07-20T15:55:57;19.60;95.80
66422;DHT22;53228;51.380;0.098;2023-07-20T15:58:24;19.60;96.50
66422;DHT22;53228;51.380;0.098;2023-07-20T16:00:55;19.70;96.50
66422;DHT22;53228;51.380;0.098;2023-07-20T16:03:23;19.80;96.80
66422;DHT22;53228;51.380;0.098;2023-07-20T16:06:04;19.90;96.90
66422;DHT22;53228;51.380;0.098;2023-07-20T16:08:32;19.90;97.00
66422;DHT22;53228;51.380;0.098;2023-07-20T16:11:00;19.90;96.80
66422;DHT22;53228;51.380;0.098;2023-07-20T16:13:28;19.90;96.90
66422;DHT22;53228;51.380;0.098;2023-07-20T16:15:56;19.90;97.10
66422;DHT22;53228;51.380;0.098;2023-07-20T16:18:23;20.00;96.50
66422;DHT22;53228;51.380;0.098;2023-07-20T16:20:51;19.90;96.50
66422;DHT22;53228;51.380;0.098;2023-07-20T16:23:20;19.90;96.70
66422;DHT22;53228;51.380;0.098;2023-07-20T16:25:47;19.70;96.70
66422;DHT22;53228;51.380;0.098;2023-07-20T16:28:15;19.70;96.60
66422;DHT22;53228;51.380;0.098;2023-07-20T16:30:43;19.50;96.80
66422;DHT22;53228;51.380;0.098;2023-07-20T16:33:11;19.40;96.70
66422;DHT22;53228;51.380;0.098;2023-07-20T16:35:39;19.40;96.90
66422;DHT22;53228;51.380;0.098;2023-07-20T16:38:11;19.30;97.40
66422;DHT22;53228;51.380;0.098;2023-07-20T16:40:40;19.20;97.80
66422;DHT22;53228;51.380;0.098;2023-07-20T16:43:11;19.10;97.90
66422;DHT22;53228;51.380;0.098;2023-07-20T16:45:39;19.10;98.00
66422;DHT22;53228;51.380;0.098;2023-07-20T16:48:06;19.00;98.20
66422;DHT22;53228;51.380;0.098;2023-07-20T16:50:34;18.90;98.50
66422;DHT22;53228;51.380;0.098;2023-07-20T16:53:02;18.80;98.70
66422;DHT22;53228;51.380;0.098;2023-07-20T16:55:30;18.80;98.90
66422;DHT22;53228;51.380;0.098;2023-07-20T16:57:57;18.80;99.00
66422;DHT22;53228;51.380;0.098;2023-07-20T17:00:25;18.70;99.30
66422;DHT22;53228;51.380;0.098;2023-07-20T17:02:53;18.60;99.60
66422;DHT22;53228;51.380;0.098;2023-07-20T17:05:20;18.50;99.90
66422;DHT22;53228;51.380;0.098;2023-07-20T17:07:48;18.40;99.90
66422;DHT22;53228;51.380;0.098;2023-07-20T17:10:18;18.20;99.90
66422;DHT22;53228;51.380;0.098;2023-07-20T17:12:46;18.00;99.90
66422;DHT22;53228;51.380;0.098;2023-07-20T17:15:14;18.00;99.90
66422;DHT22;53228;51.380;0.098;2023-07-20T17:17:42;17.90;99.90
66422;DHT22;53228;51.380;0.098;2023-07-20T17:20:10;17.80;99.90
66422;DHT22;53228;51.380;0.098;2023-07-20T17:22:41;17.70;99.90
66422;DHT22;53228;51.380;0.098;2023-07-20T17:25:09;17.70;99.90
66422;DHT22;53228;51.380;0.098;2023-07-20T17:27:40;17.70;99.90
66422;DHT22;53228;51.380;0.098;2023-07-20T17:30:11;17.70;99.90
66422;DHT22;53228;51.380;0.098;2023-07-20T17:32:38;17.80;99.90
66422;DHT22;53228;51.380;0.098;2023-07-20T17:35:06;17.80;99.90
66422;DHT22;53228;51.380;0.098;2023-07-20T17:37:34;17.90;99.90
66422;DHT22;53228;51.380;0.098;2023-07-20T17:40:11;18.00;99.90
66422;DHT22;53228;51.380;0.098;2023-07-20T17:42:42;18.00;99.90
66422;DHT22;53228;51.380;0.098;2023-07-20T17:45:13;18.00;99.90
66422;DHT22;53228;51.380;0.098;2023-07-20T17:47:41;18.00;99.90
66422;DHT22;53228;51.380;0.098;2023-07-20T17:50:09;18.00;99.90
66422;DHT22;53228;51.380;0.098;2023-07-20T17:52:42;18.00;99.90
66422;DHT22;53228;51.380;0.098;2023-07-20T17:55:09;18.00;99.90
66422;DHT22;53228;51.380;0.098;2023-07-20T17:57:37;18.00;99.90
66422;DHT22;53228;51.380;0.098;2023-07-20T18:00:05;17.90;99.90
66422;DHT22;53228;51.380;0.098;2023-07-20T18:02:40;17.90;99.90
66422;DHT22;53228;51.380;0.098;2023-07-20T18:05:08;17.80;99.90
66422;DHT22;53228;51.380;0.098;2023-07-20T18:07:36;17.80;99.90
66422;DHT22;53228;51.380;0.098;2023-07-20T18:10:04;17.80;99.90
66422;DHT22;53228;51.380;0.098;2023-07-20T18:12:32;17.80;99.90
66422;DHT22;53228;51.380;0.098;2023-07-20T18:14:59;17.80;99.90
66422;DHT22;53228;51.380;0.098;2023-07-20T18:17:27;17.80;99.90
66422;DHT22;53228;51.380;0.098;2023-07-20T18:19:55;17.70;99.90
66422;DHT22;53228;51.380;0.098;2023-07-20T18:22:22;17.60;99.90
66422;DHT22;53228;51.380;0.098;2023-07-20T18:24:50;17.50;99.90
66422;DHT22;53228;51.380;0.098;2023-07-20T18:27:18;17.30;99.90
66422;DHT22;53228;51.380;0.098;2023-07-20T18:29:48;17.30;99.90
66422;DHT22;53228;51.380;0.098;2023-07-20T18:32:15;17.20;99.90
66422;DHT22;53228;51.380;0.098;2023-07-20T18:34:43;17.10;99.90
66422;DHT22;53228;51.380;0.098;2023-07-20T18:37:11;16.90;99.90
66422;DHT22;53228;51.380;0.098;2023-07-20T18:39:39;17.00;99.90
66422;DHT22;53228;51.380;0.098;2023-07-20T18:42:07;16.90;99.90
66422;DHT22;53228;51.380;0.098;2023-07-20T18:44:34;16.90;99.90
66422;DHT22;53228;51.380;0.098;2023-07-20T18:47:02;16.80;99.90
66422;DHT22;53228;51.380;0.098;2023-07-20T18:49:30;16.80;99.90
66422;DHT22;53228;51.380;0.098;2023-07-20T18:51:58;16.70;99.90
66422;DHT22;53228;51.380;0.098;2023-07-20T18:54:30;16.70;99.90
66422;DHT22;53228;51.380;0.098;2023-07-20T18:56:58;16.60;99.90
66422;DHT22;53228;51.380;0.098;2023-07-20T18:59:25;16.50;99.90
66422;DHT22;53228;51.380;0.098;2023-07-20T19:01:53;16.40;99.90
66422;DHT22;53228;51.380;0.098;2023-07-20T19:04:21;16.30;99.90
66422;DHT22;53228;51.380;0.098;2023-07-20T19:06:49;16.30;99.90
66422;DHT22;53228;51.380;0.098;2023-07-20T19:09:17;16.20;99.90
66422;DHT22;53228;51.380;0.098;2023-07-20T19:11:44;16.10;99.90
66422;DHT22;53228;51.380;0.098;2023-07-20T19:14:15;16.00;99.90
66422;DHT22;53228;51.380;0.098;2023-07-20T19:16:43;16.00;99.90
66422;DHT22;53228;51.380;0.098;2023-07-20T19:19:11;15.90;99.90
66422;DHT22;53228;51.380;0.098;2023-07-20T19:21:39;15.90;99.90
66422;DHT22;53228;51.380;0.098;2023-07-20T19:24:06;15.80;99.90
66422;DHT22;53228;51.380;0.098;2023-07-20T19:26:34;15.80;99.90
66422;DHT22;53228;51.380;0.098;2023-07-20T19:29:02;15.70;99.90
66422;DHT22;53228;51.380;0.098;2023-07-20T19:31:30;15.70;99.90
66422;DHT22;53228;51.380;0.098;2023-07-20T19:33:57;15.60;99.90
66422;DHT22;53228;51.380;0.098;2023-07-20T19:36:25;15.50;99.90
66422;DHT22;53228;51.380;0.098;2023-07-20T19:38:54;15.50;99.90
66422;DHT22;53228;51.380;0.098;2023-07-20T19:41:21;15.40;99.90
66422;DHT22;53228;51.380;0.098;2023-07-20T19:43:50;15.30;99.90
66422;DHT22;53228;51.380;0.098;2023-07-20T19:46:18;15.30;99.90
66422;DHT22;53228;51.380;0.098;2023-07-20T19:48:46;15.20;99.90
66422;DHT22;53228;51.380;0.098;2023-07-20T19:51:14;15.20;99.90
66422;DHT22;53228;51.380;0.098;2023-07-20T19:53:42;15.10;99.90
66422;DHT22;53228;51.380;0.098;2023-07-20T19:56:29;15.10;99.90
66422;DHT22;53228;51.380;0.098;2023-07-20T19:58:57;15.00;99.90
66422;DHT22;53228;51.380;0.098;2023-07-20T20:01:25;14.90;99.90
66422;DHT22;53228;51.380;0.098;2023-07-20T20:03:55;14.90;99.90
66422;DHT22;53228;51.380;0.098;2023-07-20T20:06:43;14.80;99.90
66422;DHT22;53228;51.380;0.098;2023-07-20T20:09:11;14.70;99.90
66422;DHT22;53228;51.380;0.098;2023-07-20T20:11:39;14.70;99.90
66422;DHT22;53228;51.380;0.098;2023-07-20T20:14:06;14.60;99.90
66422;DHT22;53228;51.380;0.098;2023-07-20T20:16:34;14.50;99.90
66422;DHT22;53228;51.380;0.098;2023-07-20T20:19:02;14.40;99.90
66422;DHT22;53228;51.380;0.098;2023-07-20T20:21:30;14.80;99.90
66422;DHT22;53228;51.380;0.098;2023-07-20T20:23:57;14.30;99.90
66422;DHT22;53228;51.380;0.098;2023-07-20T20:26:25;14.20;99.90
66422;DHT22;53228;51.380;0.098;2023-07-20T20:28:53;14.20;99.90
66422;DHT22;53228;51.380;0.098;2023-07-20T20:31:21;14.10;99.90
66422;DHT22;53228;51.380;0.098;2023-07-20T20:33:49;14.00;99.90
66422;DHT22;53228;51.380;0.098;2023-07-20T20:36:16;13.90;99.90
66422;DHT22;53228;51.380;0.098;2023-07-20T20:38:44;13.90;99.90
66422;DHT22;53228;51.380;0.098;2023-07-20T20:41:12;13.80;99.90
66422;DHT22;53228;51.380;0.098;2023-07-20T20:43:39;14.10;99.90
66422;DHT22;53228;51.380;0.098;2023-07-20T20:46:07;13.60;99.90
66422;DHT22;53228;51.380;0.098;2023-07-20T20:48:40;13.60;99.90
66422;DHT22;53228;51.380;0.098;2023-07-20T20:51:13;13.50;99.90
66422;DHT22;53228;51.380;0.098;2023-07-20T20:53:41;13.50;99.90
66422;DHT22;53228;51.380;0.098;2023-07-20T20:56:08;13.40;99.90
66422;DHT22;53228;51.380;0.098;2023-07-20T20:58:36;13.40;99.90
66422;DHT22;53228;51.380;0.098;2023-07-20T21:01:04;13.30;99.90
66422;DHT22;53228;51.380;0.098;2023-07-20T21:03:32;13.30;99.90
66422;DHT22;53228;51.380;0.098;2023-07-20T21:06:00;13.20;99.90
66422;DHT22;53228;51.380;0.098;2023-07-20T21:08:27;13.10;99.90
66422;DHT22;53228;51.380;0.098;2023-07-20T21:10:58;13.10;99.90
66422;DHT22;53228;51.380;0.098;2023-07-20T21:13:26;13.00;99.90
66422;DHT22;53228;51.380;0.098;2023-07-20T21:18:23;12.70;99.90
66422;DHT22;53228;51.380;0.098;2023-07-20T21:20:50;12.90;99.90
66422;DHT22;53228;51.380;0.098;2023-07-20T21:23:18;12.80;99.90
66422;DHT22;53228;51.380;0.098;2023-07-20T21:25:49;12.80;99.90
66422;DHT22;53228;51.380;0.098;2023-07-20T21:28:16;12.70;99.90
66422;DHT22;53228;51.380;0.098;2023-07-20T21:31:03;12.60;99.90
66422;DHT22;53228;51.380;0.098;2023-07-20T21:33:31;12.60;99.90
66422;DHT22;53228;51.380;0.098;2023-07-20T21:36:00;12.60;99.90
66422;DHT22;53228;51.380;0.098;2023-07-20T21:38:28;12.60;99.90
66422;DHT22;53228;51.380;0.098;2023-07-20T21:40:58;12.50;99.90
66422;DHT22;53228;51.380;0.098;2023-07-20T21:43:26;12.50;99.90
66422;DHT22;53228;51.380;0.098;2023-07-20T21:45:54;12.50;99.90
66422;DHT22;53228;51.380;0.098;2023-07-20T21:48:22;12.50;99.90
66422;DHT22;53228;51.380;0.098;2023-07-20T21:50:50;12.50;99.90
66422;DHT22;53228;51.380;0.098;2023-07-20T21:53:18;12.50;99.90
66422;DHT22;53228;51.380;0.098;2023-07-20T21:55:46;12.90;99.90
66422;DHT22;53228;51.380;0.098;2023-07-20T21:58:17;12.40;99.90
66422;DHT22;53228;51.380;0.098;2023-07-20T22:00:46;12.40;99.90
66422;DHT22;53228;51.380;0.098;2023-07-20T22:03:18;12.40;99.90
66422;DHT22;53228;51.380;0.098;2023-07-20T22:05:50;12.30;99.90
66422;DHT22;53228;51.380;0.098;2023-07-20T22:08:19;12.30;99.90
66422;DHT22;53228;51.380;0.098;2023-07-20T22:10:47;12.30;99.90
66422;DHT22;53228;51.380;0.098;2023-07-20T22:13:20;12.20;99.90
66422;DHT22;53228;51.380;0.098;2023-07-20T22:15:48;12.20;99.90
66422;DHT22;53228;51.380;0.098;2023-07-20T22:18:18;12.20;99.90
66422;DHT22;53228;51.380;0.098;2023-07-20T22:21:03;12.10;99.90
66422;DHT22;53228;51.380;0.098;2023-07-20T22:23:33;12.00;99.90
66422;DHT22;53228;51.380;0.098;2023-07-20T22:26:02;12.00;99.90
66422;DHT22;53228;51.380;0.098;2023-07-20T22:28:30;12.20;99.90
66422;DHT22;53228;51.380;0.098;2023-07-20T22:30:58;12.00;99.90
66422;DHT22;53228;51.380;0.098;2023-07-20T22:33:26;12.00;99.90
66422;DHT22;53228;51.380;0.098;2023-07-20T22:35:54;11.90;99.90
66422;DHT22;53228;51.380;0.098;2023-07-20T22:38:21;11.90;99.90
66422;DHT22;53228;51.380;0.098;2023-07-20T22:40:49;11.90;99.90
66422;DHT22;53228;51.380;0.098;2023-07-20T22:43:17;11.90;99.90
66422;DHT22;53228;51.380;0.098;2023-07-20T22:45:47;11.90;99.90
66422;DHT22;53228;51.380;0.098;2023-07-20T22:48:16;11.90;99.90
66422;DHT22;53228;51.380;0.098;2023-07-20T22:50:44;11.90;99.90
66422;DHT22;53228;51.380;0.098;2023-07-20T22:53:13;11.90;99.90
66422;DHT22;53228;51.380;0.098;2023-07-20T22:55:45;11.90;99.90
66422;DHT22;53228;51.380;0.098;2023-07-20T22:58:13;11.90;99.90
66422;DHT22;53228;51.380;0.098;2023-07-20T23:00:41;11.90;99.90
66422;DHT22;53228;51.380;0.098;2023-07-20T23:03:09;11.90;99.90
66422;DHT22;53228;51.380;0.098;2023-07-20T23:05:37;11.80;99.90
66422;DHT22;53228;51.380;0.098;2023-07-20T23:08:05;12.60;99.90
66422;DHT22;53228;51.380;0.098;2023-07-20T23:10:32;11.80;99.90
66422;DHT22;53228;51.380;0.098;2023-07-20T23:13:00;11.80;99.90
66422;DHT22;53228;51.380;0.098;2023-07-20T23:15:28;11.70;99.90
66422;DHT22;53228;51.380;0.098;2023-07-20T23:17:56;11.70;99.90
66422;DHT22;53228;51.380;0.098;2023-07-20T23:20:23;11.70;99.90
66422;DHT22;53228;51.380;0.098;2023-07-20T23:22:56;11.70;99.90
66422;DHT22;53228;51.380;0.098;2023-07-20T23:25:23;11.60;99.90
66422;DHT22;53228;51.380;0.098;2023-07-20T23:27:51;11.60;99.90
66422;DHT22;53228;51.380;0.098;2023-07-20T23:30:19;11.60;99.90
66422;DHT22;53228;51.380;0.098;2023-07-20T23:32:47;11.60;99.90
66422;DHT22;53228;51.380;0.098;2023-07-20T23:35:14;11.60;99.90
66422;DHT22;53228;51.380;0.098;2023-07-20T23:37:42;11.50;99.90
66422;DHT22;53228;51.380;0.098;2023-07-20T23:40:10;11.30;99.90
66422;DHT22;53228;51.380;0.098;2023-07-20T23:42:45;11.40;99.90
66422;DHT22;53228;51.380;0.098;2023-07-20T23:45:13;11.40;99.90
66422;DHT22;53228;51.380;0.098;2023-07-20T23:47:43;11.40;99.90
66422;DHT22;53228;51.380;0.098;2023-07-20T23:50:11;11.30;99.90
66422;DHT22;53228;51.380;0.098;2023-07-20T23:52:40;11.30;99.90
66422;DHT22;53228;51.380;0.098;2023-07-20T23:55:08;11.20;99.90
66422;DHT22;53228;51.380;0.098;2023-07-20T23:57:36;11.20;99.90
